Time;durP1;ratioP1;P1;durP2;ratioP2;P2;SDS_P1;SDS_P2;PMS_P1;PMS_P2;Temp;Humidity;BMP_temperature;BMP_pressure;BME280_temperature;BME280_humidity;BME280_pressure;Samples;Min_cycle;Max_cycle;Signal;HPM_P1;HPM_P2
2022/08/29 00:00:22;;;;;;;;;;;17.00;99.90;;;;;;5009444;28;20344;-80
2022/08/29 00:02:49;;;;;;;;;;;17.00;99.90;;;;;;5021998;28;19965;-80
2022/08/29 00:05:15;;;;;;;;;;;16.90;99.90;;;;;;4994530;28;19921;-80
2022/08/29 00:07:41;;;;;;;;;;;16.90;99.90;;;;;;5013022;28;19921;-81
2022/08/29 00:10:07;;;;;;;;;;;16.80;99.90;;;;;;5009588;28;20395;-78
2022/08/29 00:12:33;;;;;;;;;;;16.90;99.90;;;;;;5020688;28;19963;-79
2022/08/29 00:14:59;;;;;;;;;;;16.80;99.90;;;;;;5003232;28;19914;-79
2022/08/29 00:17:24;;;;;;;;;;;16.80;99.90;;;;;;5007334;28;19922;-79
2022/08/29 00:19:50;;;;;;;;;;;16.70;99.90;;;;;;5010413;28;19922;-80
2022/08/29 00:22:15;;;;;;;;;;;16.70;99.90;;;;;;5004033;28;19918;-80
2022/08/29 00:24:41;;;;;;;;;;;16.60;99.90;;;;;;5002913;28;19925;-80
2022/08/29 00:27:07;;;;;;;;;;;16.60;99.90;;;;;;5008222;28;19922;-79
2022/08/29 00:29:32;;;;;;;;;;;16.60;99.90;;;;;;5006129;28;19925;-79
2022/08/29 00:31:58;;;;;;;;;;;16.50;99.90;;;;;;5008145;28;20389;-78
2022/08/29 00:34:24;;;;;;;;;;;16.40;99.90;;;;;;5000366;28;19914;-80
2022/08/29 00:36:50;;;;;;;;;;;16.40;99.90;;;;;;5009270;28;19921;-80
2022/08/29 00:39:16;;;;;;;;;;;16.30;99.90;;;;;;5011664;28;19917;-80
2022/08/29 00:41:42;;;;;;;;;;;16.30;99.90;;;;;;5007838;28;19920;-80
2022/08/29 00:44:07;;;;;;;;;;;16.30;99.90;;;;;;4993940;28;20028;-79
2022/08/29 00:46:41;;;;;;;;;;;16.30;99.90;;;;;;5008403;28;19924;-78
2022/08/29 00:49:08;;;;;;;;;;;16.20;99.90;;;;;;5010258;28;19920;-79
2022/08/29 00:51:35;;;;;;;;;;;16.20;99.90;;;;;;5011093;28;19913;-79
2022/08/29 00:54:02;;;;;;;;;;;16.20;99.90;;;;;;5011080;28;19913;-79
2022/08/29 00:56:29;;;;;;;;;;;16.10;99.90;;;;;;5007157;28;19921;-80
2022/08/29 00:58:57;;;;;;;;;;;16.10;99.90;;;;;;5003671;28;19924;-80
2022/08/29 01:01:22;;;;;;;;;;;16.00;99.90;;;;;;5007645;28;20055;-80
2022/08/29 01:03:48;;;;;;;;;;;16.00;99.90;;;;;;4992737;28;20016;-80
2022/08/29 01:06:14;;;;;;;;;;;16.00;99.90;;;;;;4999622;28;19918;-79
2022/08/29 01:08:40;;;;;;;;;;;15.90;99.90;;;;;;5007889;28;19936;-80
2022/08/29 01:13:52;;;;;;;;;;;15.90;99.90;;;;;;4999094;28;20262;-81
2022/08/29 01:16:19;;;;;;;;;;;15.80;99.90;;;;;;4999320;28;20295;-80
2022/08/29 01:18:46;;;;;;;;;;;15.80;99.90;;;;;;5009553;28;19917;-80
2022/08/29 01:21:30;;;;;;;;;;;15.80;99.90;;;;;;5014715;28;20011;-80
2022/08/29 01:24:14;;;;;;;;;;;15.70;99.90;;;;;;4988967;28;20012;-80
2022/08/29 01:26:45;;;;;;;;;;;15.70;99.90;;;;;;5007750;28;20008;-80
2022/08/29 01:29:10;;;;;;;;;;;15.70;99.90;;;;;;5009079;28;20290;-80
2022/08/29 01:31:41;;;;;;;;;;;15.60;99.90;;;;;;5004794;28;19918;-80
2022/08/29 01:34:07;;;;;;;;;;;15.60;99.90;;;;;;5007584;28;20428;-81
2022/08/29 01:36:52;;;;;;;;;;;15.50;99.90;;;;;;5006200;28;20016;-79
2022/08/29 01:39:20;;;;;;;;;;;15.50;99.90;;;;;;5006475;28;20458;-80
2022/08/29 01:41:47;;;;;;;;;;;15.40;99.90;;;;;;5002487;28;19918;-79
2022/08/29 01:44:14;;;;;;;;;;;15.40;99.90;;;;;;5006808;28;19918;-81
2022/08/29 01:46:39;;;;;;;;;;;15.30;99.90;;;;;;5017224;28;19925;-80
2022/08/29 01:49:06;;;;;;;;;;;15.30;99.90;;;;;;4990227;28;19918;-81
2022/08/29 01:51:32;;;;;;;;;;;15.20;99.90;;;;;;5003129;28;19933;-79
2022/08/29 01:53:58;;;;;;;;;;;15.20;99.90;;;;;;5018449;28;19922;-81
2022/08/29 01:56:25;;;;;;;;;;;15.10;99.90;;;;;;5001633;28;19910;-80
2022/08/29 01:58:52;;;;;;;;;;;15.00;99.90;;;;;;5017213;28;19956;-81
2022/08/29 02:01:29;;;;;;;;;;;14.90;99.90;;;;;;5000031;28;20254;-80
2022/08/29 02:03:57;;;;;;;;;;;14.90;99.90;;;;;;4988116;28;19914;-79
2022/08/29 02:06:23;;;;;;;;;;;14.90;99.90;;;;;;5014382;28;19913;-80
2022/08/29 02:08:49;;;;;;;;;;;14.80;99.90;;;;;;5000575;28;19922;-80
2022/08/29 02:11:16;;;;;;;;;;;14.70;99.90;;;;;;5004919;28;19917;-80
2022/08/29 02:13:44;;;;;;;;;;;14.70;99.90;;;;;;5004404;28;20287;-78
2022/08/29 02:16:10;;;;;;;;;;;14.70;99.90;;;;;;5005681;28;19913;-80
2022/08/29 02:18:36;;;;;;;;;;;14.60;99.90;;;;;;5008662;28;20325;-80
2022/08/29 02:21:02;;;;;;;;;;;14.60;99.90;;;;;;5005390;28;19940;-80
2022/08/29 02:23:28;;;;;;;;;;;14.60;99.90;;;;;;5004750;28;19922;-79
2022/08/29 02:25:54;;;;;;;;;;;14.50;99.90;;;;;;5009580;28;19923;-80
2022/08/29 02:28:20;;;;;;;;;;;14.50;99.90;;;;;;5013234;28;20052;-80
2022/08/29 02:30:48;;;;;;;;;;;14.50;99.90;;;;;;5008823;28;20683;-80
2022/08/29 02:33:14;;;;;;;;;;;14.40;99.90;;;;;;5010641;28;19920;-80
2022/08/29 02:35:41;;;;;;;;;;;14.40;99.90;;;;;;5019679;28;19941;-80
2022/08/29 02:38:07;;;;;;;;;;;14.40;99.90;;;;;;5020824;28;19918;-80
2022/08/29 02:40:32;;;;;;;;;;;14.40;99.90;;;;;;5011916;28;19914;-80
2022/08/29 02:42:58;;;;;;;;;;;14.30;99.90;;;;;;4999848;28;19941;-79
2022/08/29 02:45:24;;;;;;;;;;;14.30;99.90;;;;;;4993970;28;20275;-79
2022/08/29 02:47:50;;;;;;;;;;;14.30;99.90;;;;;;5019508;28;19972;-80
2022/08/29 02:50:16;;;;;;;;;;;14.30;99.90;;;;;;5003439;28;19918;-80
2022/08/29 02:52:42;;;;;;;;;;;14.30;99.90;;;;;;5011522;28;20298;-80
2022/08/29 02:55:09;;;;;;;;;;;14.20;99.90;;;;;;5025494;28;19913;-80
2022/08/29 02:57:34;;;;;;;;;;;14.20;99.90;;;;;;5010447;28;19917;-80
2022/08/29 03:00:00;;;;;;;;;;;14.20;99.90;;;;;;5010362;28;19928;-79
2022/08/29 03:02:26;;;;;;;;;;;14.20;99.90;;;;;;5026491;28;19925;-80
2022/08/29 03:04:52;;;;;;;;;;;14.10;99.90;;;;;;5007960;28;19935;-79
2022/08/29 03:07:18;;;;;;;;;;;14.10;99.90;;;;;;5009135;28;19921;-80
2022/08/29 03:09:43;;;;;;;;;;;14.00;99.90;;;;;;5008343;28;19914;-79
2022/08/29 03:12:09;;;;;;;;;;;14.00;99.90;;;;;;5008290;28;19921;-79
2022/08/29 03:14:35;;;;;;;;;;;14.00;99.90;;;;;;5004146;28;19972;-80
2022/08/29 03:17:01;;;;;;;;;;;14.00;99.90;;;;;;5008809;28;20529;-79
2022/08/29 03:19:27;;;;;;;;;;;13.90;99.90;;;;;;4994429;28;20013;-80
2022/08/29 03:21:52;;;;;;;;;;;13.90;99.90;;;;;;5011155;28;19917;-80
2022/08/29 03:24:18;;;;;;;;;;;13.90;99.90;;;;;;5011509;28;20012;-80
2022/08/29 03:26:43;;;;;;;;;;;13.80;99.90;;;;;;4994212;28;19921;-80
2022/08/29 03:29:09;;;;;;;;;;;13.80;99.90;;;;;;5008454;28;19969;-79
2022/08/29 03:31:35;;;;;;;;;;;13.70;99.90;;;;;;5007852;28;19968;-80
2022/08/29 03:34:00;;;;;;;;;;;13.70;99.90;;;;;;5007210;28;20038;-80
2022/08/29 03:36:26;;;;;;;;;;;13.70;99.90;;;;;;5002346;28;19927;-79
2022/08/29 03:38:52;;;;;;;;;;;13.70;99.90;;;;;;5011947;28;19925;-80
2022/08/29 03:41:19;;;;;;;;;;;13.60;99.90;;;;;;5015785;28;19945;-80
2022/08/29 03:43:44;;;;;;;;;;;13.60;99.90;;;;;;4993252;28;19940;-80
2022/08/29 03:46:10;;;;;;;;;;;13.60;99.90;;;;;;4990682;28;20366;-80
2022/08/29 03:48:36;;;;;;;;;;;13.50;99.90;;;;;;4994385;28;20592;-80
2022/08/29 03:51:01;;;;;;;;;;;13.50;99.90;;;;;;5027282;28;19918;-80
2022/08/29 03:53:27;;;;;;;;;;;13.40;99.90;;;;;;5009874;28;19925;-80
2022/08/29 03:55:53;;;;;;;;;;;13.40;99.90;;;;;;4976057;28;19917;-80
2022/08/29 03:58:18;;;;;;;;;;;13.40;99.90;;;;;;4999069;28;19917;-80
2022/08/29 04:00:45;;;;;;;;;;;13.40;99.90;;;;;;5003054;28;20048;-80
2022/08/29 04:03:11;;;;;;;;;;;13.40;99.90;;;;;;4990507;28;20501;-80
2022/08/29 04:05:37;;;;;;;;;;;13.40;99.90;;;;;;4990077;28;20038;-80
2022/08/29 04:08:02;;;;;;;;;;;13.30;99.90;;;;;;5024611;28;19922;-80
2022/08/29 04:10:29;;;;;;;;;;;13.30;99.90;;;;;;4998386;28;19936;-79
2022/08/29 04:12:56;;;;;;;;;;;13.30;99.90;;;;;;5006876;28;19922;-80
2022/08/29 04:15:23;;;;;;;;;;;13.20;99.90;;;;;;5008952;28;19949;-79
2022/08/29 04:17:49;;;;;;;;;;;13.20;99.90;;;;;;4988408;28;19925;-80
2022/08/29 04:20:15;;;;;;;;;;;13.20;99.90;;;;;;4990389;28;20004;-80
2022/08/29 04:22:41;;;;;;;;;;;13.20;99.90;;;;;;5009441;28;19925;-80
2022/08/29 04:25:09;;;;;;;;;;;13.10;99.90;;;;;;5005026;28;20619;-80
2022/08/29 04:27:35;;;;;;;;;;;13.10;99.90;;;;;;5017364;28;20417;-78
2022/08/29 04:30:04;;;;;;;;;;;13.10;99.90;;;;;;5015990;28;19916;-80
2022/08/29 04:32:33;;;;;;;;;;;13.10;99.90;;;;;;5008162;28;19922;-80
2022/08/29 04:34:58;;;;;;;;;;;13.10;99.90;;;;;;4994017;28;19917;-79
2022/08/29 04:37:24;;;;;;;;;;;13.00;99.90;;;;;;5010242;28;19924;-80
2022/08/29 04:39:50;;;;;;;;;;;13.00;99.90;;;;;;4993133;28;19967;-79
2022/08/29 04:42:17;;;;;;;;;;;13.00;99.90;;;;;;5010140;28;19926;-80
2022/08/29 04:44:43;;;;;;;;;;;13.00;99.90;;;;;;4988616;28;19925;-79
2022/08/29 04:47:08;;;;;;;;;;;13.00;99.90;;;;;;5000361;28;19975;-80
2022/08/29 04:49:34;;;;;;;;;;;13.00;99.90;;;;;;4980124;28;19921;-80
2022/08/29 04:52:00;;;;;;;;;;;13.00;99.90;;;;;;5008709;28;19925;-80
2022/08/29 04:54:25;;;;;;;;;;;13.00;99.90;;;;;;4989087;28;19918;-80
2022/08/29 04:56:51;;;;;;;;;;;13.00;99.90;;;;;;5006652;28;19971;-80
2022/08/29 04:59:18;;;;;;;;;;;13.00;99.90;;;;;;5007736;28;20012;-80
2022/08/29 05:01:44;;;;;;;;;;;13.00;99.90;;;;;;5001235;28;19953;-79
2022/08/29 05:04:10;;;;;;;;;;;13.00;99.90;;;;;;5014509;28;19919;-79
2022/08/29 05:06:35;;;;;;;;;;;13.00;99.90;;;;;;5008727;28;19937;-79
2022/08/29 05:09:01;;;;;;;;;;;13.10;99.90;;;;;;4997485;28;19940;-80
2022/08/29 05:11:28;;;;;;;;;;;13.10;99.90;;;;;;5010080;28;19922;-79
2022/08/29 05:13:54;;;;;;;;;;;13.10;99.90;;;;;;5007745;28;19920;-79
2022/08/29 05:16:19;;;;;;;;;;;13.10;99.90;;;;;;5017797;28;20001;-79
2022/08/29 05:18:45;;;;;;;;;;;13.20;99.90;;;;;;5000735;28;19918;-81
2022/08/29 05:21:11;;;;;;;;;;;13.20;99.90;;;;;;5009646;28;19914;-80
2022/08/29 05:23:37;;;;;;;;;;;13.20;99.90;;;;;;4993821;28;20297;-81
2022/08/29 05:26:04;;;;;;;;;;;13.20;99.90;;;;;;4997108;28;19920;-81
2022/08/29 05:28:30;;;;;;;;;;;13.30;99.90;;;;;;5005770;28;19925;-81
2022/08/29 05:30:56;;;;;;;;;;;13.30;99.90;;;;;;4999484;28;20029;-81
2022/08/29 05:33:22;;;;;;;;;;;13.30;99.90;;;;;;4994189;28;19956;-79
2022/08/29 05:35:48;;;;;;;;;;;13.30;99.90;;;;;;5009533;28;19953;-81
2022/08/29 05:38:14;;;;;;;;;;;13.40;99.90;;;;;;5011402;28;19936;-81
2022/08/29 05:40:40;;;;;;;;;;;13.50;99.90;;;;;;4988802;28;19914;-81
2022/08/29 05:43:06;;;;;;;;;;;13.60;99.90;;;;;;5016586;28;20397;-81
2022/08/29 05:45:31;;;;;;;;;;;13.70;99.90;;;;;;4991780;28;19913;-81
2022/08/29 05:47:58;;;;;;;;;;;13.80;99.90;;;;;;5001060;28;19937;-81
2022/08/29 05:50:23;;;;;;;;;;;13.80;99.90;;;;;;4992126;28;19917;-81
2022/08/29 05:52:49;;;;;;;;;;;14.00;99.90;;;;;;5009553;28;20403;-81
2022/08/29 05:55:15;;;;;;;;;;;14.20;99.90;;;;;;4990387;28;20442;-81
2022/08/29 05:57:40;;;;;;;;;;;14.40;99.90;;;;;;5007468;28;19957;-81
2022/08/29 06:00:09;;;;;;;;;;;14.70;99.90;;;;;;4996924;28;19922;-80
2022/08/29 06:02:37;;;;;;;;;;;15.10;99.90;;;;;;4990933;28;19963;-80
2022/08/29 06:05:04;;;;;;;;;;;15.50;99.90;;;;;;5008578;28;20024;-81
2022/08/29 06:07:30;;;;;;;;;;;15.90;99.90;;;;;;5010825;28;19914;-80
2022/08/29 06:09:55;;;;;;;;;;;16.40;99.90;;;;;;5014266;28;19972;-80
2022/08/29 06:12:21;;;;;;;;;;;16.80;99.90;;;;;;4984272;28;19918;-80
2022/08/29 06:14:47;;;;;;;;;;;17.10;99.90;;;;;;5012024;28;19917;-80
2022/08/29 06:17:12;;;;;;;;;;;17.50;99.90;;;;;;5006267;28;19914;-80
2022/08/29 06:19:38;;;;;;;;;;;17.80;99.90;;;;;;4995900;28;20012;-80
2022/08/29 06:22:05;;;;;;;;;;;18.20;99.90;;;;;;5011735;28;19988;-79
2022/08/29 06:24:31;;;;;;;;;;;18.60;99.90;;;;;;5027152;28;20573;-78
2022/08/29 06:26:57;;;;;;;;;;;18.90;99.90;;;;;;5013915;28;19925;-79
2022/08/29 06:29:24;;;;;;;;;;;19.20;99.90;;;;;;5011326;28;19925;-79
2022/08/29 06:31:50;;;;;;;;;;;19.50;99.90;;;;;;4994646;28;19918;-78
2022/08/29 06:34:15;;;;;;;;;;;19.90;99.90;;;;;;5007987;28;20387;-78
2022/08/29 06:36:41;;;;;;;;;;;20.10;99.90;;;;;;4977767;28;19918;-78
2022/08/29 06:39:08;;;;;;;;;;;20.40;99.90;;;;;;4992613;28;20015;-78
2022/08/29 06:41:34;;;;;;;;;;;20.70;99.90;;;;;;5020063;28;19950;-78
2022/08/29 06:44:00;;;;;;;;;;;21.00;99.90;;;;;;4996095;28;19929;-78
2022/08/29 06:46:27;;;;;;;;;;;21.20;99.90;;;;;;5020106;28;19918;-78
2022/08/29 06:48:54;;;;;;;;;;;21.40;99.90;;;;;;5002004;28;19932;-78
2022/08/29 06:51:19;;;;;;;;;;;21.60;99.90;;;;;;5003326;28;19921;-78
2022/08/29 06:53:45;;;;;;;;;;;21.80;99.90;;;;;;5000140;28;19914;-78
2022/08/29 06:56:11;;;;;;;;;;;22.00;99.90;;;;;;5019174;28;19925;-78
2022/08/29 06:58:36;;;;;;;;;;;22.20;99.50;;;;;;5006259;28;20012;-78
2022/08/29 07:01:10;;;;;;;;;;;22.40;98.70;;;;;;5007871;28;19964;-80
2022/08/29 07:03:35;;;;;;;;;;;22.60;97.20;;;;;;4997203;28;20475;-80
2022/08/29 07:06:01;;;;;;;;;;;22.90;95.60;;;;;;5018621;28;19921;-80
2022/08/29 07:08:26;;;;;;;;;;;23.10;95.60;;;;;;5007119;28;19977;-80
2022/08/29 07:10:52;;;;;;;;;;;23.20;94.60;;;;;;5012609;28;19918;-80
2022/08/29 07:13:18;;;;;;;;;;;23.40;93.20;;;;;;5011125;28;19917;-78
2022/08/29 07:15:43;;;;;;;;;;;23.50;91.80;;;;;;5008966;28;19922;-78
2022/08/29 07:18:09;;;;;;;;;;;23.60;92.00;;;;;;5004255;28;19921;-78
2022/08/29 07:20:36;;;;;;;;;;;23.80;91.10;;;;;;5011106;28;19917;-78
2022/08/29 07:23:02;;;;;;;;;;;24.10;90.20;;;;;;5011791;28;20009;-78
2022/08/29 07:25:27;;;;;;;;;;;24.20;87.20;;;;;;5018450;28;20369;-78
2022/08/29 07:27:53;;;;;;;;;;;24.40;86.70;;;;;;5012414;28;19921;-80
2022/08/29 07:30:19;;;;;;;;;;;24.40;84.70;;;;;;5010123;28;20404;-80
2022/08/29 07:32:45;;;;;;;;;;;24.60;85.10;;;;;;5010899;28;20022;-80
2022/08/29 07:35:11;;;;;;;;;;;24.60;82.30;;;;;;4991813;28;19957;-78
2022/08/29 07:37:37;;;;;;;;;;;24.70;83.00;;;;;;5017747;28;19925;-81
2022/08/29 07:40:03;;;;;;;;;;;24.60;81.40;;;;;;4991515;28;19921;-80
2022/08/29 07:42:29;;;;;;;;;;;24.60;84.20;;;;;;5010669;28;19924;-79
2022/08/29 07:44:55;;;;;;;;;;;24.50;82.50;;;;;;5006061;28;19917;-80
2022/08/29 07:47:21;;;;;;;;;;;24.30;81.40;;;;;;5024677;28;19917;-80
2022/08/29 07:49:46;;;;;;;;;;;24.20;81.10;;;;;;5001137;28;20294;-80
2022/08/29 07:52:12;;;;;;;;;;;23.90;81.80;;;;;;5009620;28;19988;-80
2022/08/29 07:54:38;;;;;;;;;;;23.80;82.40;;;;;;4989973;28;20590;-80
2022/08/29 07:57:03;;;;;;;;;;;23.50;82.80;;;;;;5009929;28;19913;-80
2022/08/29 07:59:29;;;;;;;;;;;23.40;85.40;;;;;;5004081;28;20409;-80
2022/08/29 08:01:55;;;;;;;;;;;23.20;85.10;;;;;;4992798;28;19922;-81
2022/08/29 08:04:20;;;;;;;;;;;23.10;88.10;;;;;;4990831;28;19914;-80
2022/08/29 08:06:46;;;;;;;;;;;23.00;86.60;;;;;;5005573;28;19977;-80
2022/08/29 08:09:14;;;;;;;;;;;22.90;87.50;;;;;;5010406;28;20421;-80
2022/08/29 08:11:40;;;;;;;;;;;22.80;86.60;;;;;;5026288;28;19917;-80
2022/08/29 08:14:06;;;;;;;;;;;22.80;85.40;;;;;;5020041;28;20539;-81
2022/08/29 08:16:32;;;;;;;;;;;22.80;84.40;;;;;;5000380;28;19914;-81
2022/08/29 08:18:58;;;;;;;;;;;22.70;86.10;;;;;;5002797;28;19922;-80
2022/08/29 08:21:24;;;;;;;;;;;22.60;86.50;;;;;;5005867;28;20290;-80
2022/08/29 08:23:51;;;;;;;;;;;22.60;84.60;;;;;;5021719;28;19913;-80
2022/08/29 08:26:17;;;;;;;;;;;22.50;87.10;;;;;;5005538;28;20008;-80
2022/08/29 08:28:42;;;;;;;;;;;22.30;88.20;;;;;;4989242;28;20353;-80
2022/08/29 08:31:09;;;;;;;;;;;22.20;89.80;;;;;;5005843;28;20009;-79
2022/08/29 08:33:38;;;;;;;;;;;22.10;89.60;;;;;;5005985;28;19914;-80
2022/08/29 08:36:15;;;;;;;;;;;22.00;88.70;;;;;;5001424;28;19922;-80
2022/08/29 08:38:41;;;;;;;;;;;21.90;88.10;;;;;;5003274;28;19918;-80
2022/08/29 08:41:25;;;;;;;;;;;21.80;88.40;;;;;;5009508;28;20393;-80
2022/08/29 08:43:53;;;;;;;;;;;21.70;89.00;;;;;;4991935;28;20382;-80
2022/08/29 08:46:39;;;;;;;;;;;21.60;89.30;;;;;;4992439;28;19936;-80
2022/08/29 08:49:07;;;;;;;;;;;21.50;90.20;;;;;;4997269;28;19917;-80
2022/08/29 08:51:34;;;;;;;;;;;21.60;89.70;;;;;;5002213;28;19957;-80
2022/08/29 08:54:01;;;;;;;;;;;21.50;90.70;;;;;;4985217;28;19949;-80
2022/08/29 08:56:30;;;;;;;;;;;21.50;90.90;;;;;;4988821;28;19949;-80
2022/08/29 08:59:19;;;;;;;;;;;21.40;90.20;;;;;;4999074;28;20020;-80
2022/08/29 09:02:05;;;;;;;;;;;21.30;91.10;;;;;;5005481;28;19947;-80
2022/08/29 09:04:41;;;;;;;;;;;21.20;90.80;;;;;;5002208;28;19918;-80
2022/08/29 09:07:25;;;;;;;;;;;21.20;91.70;;;;;;5002350;28;19925;-79
2022/08/29 09:10:01;;;;;;;;;;;21.10;91.10;;;;;;4988914;28;19956;-80
2022/08/29 09:12:39;;;;;;;;;;;21.10;92.40;;;;;;4999366;28;19918;-80
2022/08/29 09:15:08;;;;;;;;;;;21.10;92.30;;;;;;5007406;28;19925;-80
2022/08/29 09:17:35;;;;;;;;;;;21.10;91.90;;;;;;5005393;28;19921;-80
2022/08/29 09:20:07;;;;;;;;;;;21.00;91.60;;;;;;5007643;28;20366;-80
2022/08/29 09:22:33;;;;;;;;;;;21.00;91.90;;;;;;5002624;28;20510;-80
2022/08/29 09:25:03;;;;;;;;;;;20.90;92.10;;;;;;5023193;28;20004;-80
2022/08/29 09:27:30;;;;;;;;;;;20.90;92.30;;;;;;5006349;28;19922;-79
2022/08/29 09:30:02;;;;;;;;;;;20.90;91.90;;;;;;5008971;28;19925;-80
2022/08/29 09:32:27;;;;;;;;;;;20.80;91.90;;;;;;5004960;28;19928;-80
2022/08/29 09:34:53;;;;;;;;;;;20.80;93.20;;;;;;5012641;28;19922;-80
2022/08/29 09:37:33;;;;;;;;;;;20.80;93.00;;;;;;5002360;28;19918;-80
2022/08/29 09:40:02;;;;;;;;;;;20.80;92.60;;;;;;4996878;28;20009;-80
2022/08/29 09:42:29;;;;;;;;;;;20.80;93.00;;;;;;5010277;28;19918;-80
2022/08/29 09:44:56;;;;;;;;;;;20.80;92.90;;;;;;5004621;28;20004;-80
2022/08/29 09:47:23;;;;;;;;;;;20.80;93.30;;;;;;5008377;28;19917;-80
2022/08/29 09:50:05;;;;;;;;;;;20.80;93.30;;;;;;5003031;28;19964;-80
2022/08/29 09:52:31;;;;;;;;;;;20.80;92.90;;;;;;5004157;28;20444;-80
2022/08/29 09:55:14;;;;;;;;;;;21.00;95.30;;;;;;5008394;28;19922;-80
2022/08/29 09:57:40;;;;;;;;;;;21.10;94.40;;;;;;5003704;28;19917;-80
2022/08/29 10:00:12;;;;;;;;;;;21.10;93.10;;;;;;5000943;28;19949;-80
2022/08/29 10:02:48;;;;;;;;;;;21.20;93.60;;;;;;5010430;28;19967;-80
2022/08/29 10:05:35;;;;;;;;;;;21.30;93.00;;;;;;4982515;28;20190;-81
2022/08/29 10:08:03;;;;;;;;;;;21.30;93.50;;;;;;5002102;28;19937;-81
2022/08/29 10:10:33;;;;;;;;;;;21.30;93.20;;;;;;5003456;28;19948;-82
2022/08/29 10:13:09;;;;;;;;;;;21.40;93.30;;;;;;5010772;28;20553;-81
2022/08/29 10:15:42;;;;;;;;;;;21.40;91.60;;;;;;5003914;28;19913;-80
2022/08/29 10:18:19;;;;;;;;;;;21.40;93.50;;;;;;5007937;28;19914;-80
2022/08/29 10:20:49;;;;;;;;;;;21.50;93.20;;;;;;5005191;28;20284;-80
2022/08/29 10:23:21;;;;;;;;;;;21.50;93.30;;;;;;5007141;28;19919;-80
2022/08/29 10:25:48;;;;;;;;;;;21.50;92.60;;;;;;5011658;28;20020;-80
2022/08/29 10:28:20;;;;;;;;;;;21.50;92.30;;;;;;5010403;28;20390;-80
2022/08/29 10:31:08;;;;;;;;;;;21.60;92.00;;;;;;5011942;28;19935;-80
2022/08/29 10:33:42;;;;;;;;;;;21.60;92.00;;;;;;5016089;28;19913;-80
2022/08/29 10:36:18;;;;;;;;;;;21.70;91.70;;;;;;5000641;28;19919;-80
2022/08/29 10:38:44;;;;;;;;;;;21.70;92.10;;;;;;5002446;28;19918;-80
2022/08/29 10:41:20;;;;;;;;;;;21.70;91.00;;;;;;5003335;28;19914;-78
2022/08/29 10:43:52;;;;;;;;;;;21.70;90.70;;;;;;5009106;28;20362;-79
2022/08/29 10:46:34;;;;;;;;;;;21.80;88.60;;;;;;5018605;28;19913;-80
2022/08/29 10:49:00;;;;;;;;;;;21.80;90.80;;;;;;5014189;28;19918;-79
2022/08/29 10:51:25;;;;;;;;;;;21.90;91.20;;;;;;5013514;28;19917;-79
2022/08/29 10:53:56;;;;;;;;;;;21.90;90.20;;;;;;5005668;28;19920;-80
2022/08/29 10:56:25;;;;;;;;;;;21.90;90.30;;;;;;5011760;28;19920;-81
2022/08/29 10:59:11;;;;;;;;;;;22.00;85.20;;;;;;5014287;28;19923;-79
2022/08/29 11:01:42;;;;;;;;;;;21.90;88.10;;;;;;5011815;28;19925;-81
2022/08/29 11:04:16;;;;;;;;;;;22.00;87.50;;;;;;5011133;28;19921;-81
2022/08/29 11:06:46;;;;;;;;;;;22.00;86.10;;;;;;5011125;28;19978;-82
2022/08/29 11:09:15;;;;;;;;;;;22.10;88.20;;;;;;5014804;28;19921;-82
2022/08/29 11:11:44;;;;;;;;;;;22.20;86.90;;;;;;5009810;28;20404;-81
2022/08/29 11:14:30;;;;;;;;;;;22.20;85.20;;;;;;5010872;28;19922;-81
2022/08/29 11:16:57;;;;;;;;;;;22.30;80.50;;;;;;5011105;28;20393;-81
2022/08/29 11:19:26;;;;;;;;;;;22.30;84.20;;;;;;4993565;28;19965;-82
2022/08/29 11:21:51;;;;;;;;;;;22.30;81.60;;;;;;5006535;28;20011;-81
2022/08/29 11:24:18;;;;;;;;;;;22.30;82.50;;;;;;5002301;28;19957;-81
2022/08/29 11:26:43;;;;;;;;;;;22.20;81.40;;;;;;5006967;28;19963;-81
2022/08/29 11:29:09;;;;;;;;;;;22.20;83.30;;;;;;5009748;28;19913;-82
2022/08/29 11:31:44;;;;;;;;;;;22.30;83.30;;;;;;5011099;28;19914;-82
2022/08/29 11:34:16;;;;;;;;;;;22.30;84.10;;;;;;4995486;28;20016;-80
2022/08/29 11:36:47;;;;;;;;;;;22.30;86.10;;;;;;5006724;28;19913;-81
2022/08/29 11:39:25;;;;;;;;;;;22.40;87.80;;;;;;4991097;28;19914;-81
2022/08/29 11:41:54;;;;;;;;;;;22.40;81.60;;;;;;5003757;28;19914;-81
2022/08/29 11:44:26;;;;;;;;;;;22.40;83.30;;;;;;4990729;28;19918;-81
2022/08/29 11:46:53;;;;;;;;;;;22.50;83.50;;;;;;5003846;28;20341;-81
2022/08/29 11:49:18;;;;;;;;;;;22.50;83.60;;;;;;5009169;28;20408;-81
2022/08/29 11:51:46;;;;;;;;;;;22.50;85.90;;;;;;5010604;28;19913;-81
2022/08/29 11:54:27;;;;;;;;;;;22.60;84.20;;;;;;5003588;28;19936;-83
2022/08/29 11:56:59;;;;;;;;;;;22.70;83.90;;;;;;5004976;28;20131;-78
2022/08/29 11:59:43;;;;;;;;;;;22.80;87.00;;;;;;4996257;28;19964;-80
2022/08/29 12:02:10;;;;;;;;;;;23.00;82.80;;;;;;5006050;28;19922;-78
2022/08/29 12:04:55;;;;;;;;;;;23.10;83.00;;;;;;4991633;28;19936;-80
2022/08/29 12:07:31;;;;;;;;;;;23.30;80.30;;;;;;5006228;28;20335;-79
2022/08/29 12:09:59;;;;;;;;;;;23.40;79.80;;;;;;4997583;28;19924;-79
2022/08/29 12:12:39;;;;;;;;;;;23.40;81.80;;;;;;5009640;28;19909;-81
2022/08/29 12:15:25;;;;;;;;;;;23.60;76.20;;;;;;5011253;28;20416;-79
2022/08/29 12:17:51;;;;;;;;;;;23.40;78.50;;;;;;5002200;28;20626;-78
2022/08/29 12:20:30;;;;;;;;;;;23.40;77.30;;;;;;4999972;28;19909;-80
2022/08/29 12:23:05;;;;;;;;;;;23.50;81.20;;;;;;5011630;28;19913;-81
2022/08/29 12:25:43;;;;;;;;;;;23.60;80.60;;;;;;5018310;28;19921;-80
2022/08/29 12:28:29;;;;;;;;;;;23.70;78.80;;;;;;5010840;28;19918;-78
2022/08/29 12:30:58;;;;;;;;;;;23.80;76.90;;;;;;4999855;28;20002;-79
2022/08/29 12:33:39;;;;;;;;;;;23.80;73.40;;;;;;4991312;28;19917;-80
2022/08/29 12:36:08;;;;;;;;;;;23.70;75.30;;;;;;5002033;28;20028;-83
2022/08/29 12:38:48;;;;;;;;;;;23.70;74.50;;;;;;5011970;28;19921;-79
2022/08/29 12:41:33;;;;;;;;;;;23.60;75.00;;;;;;5008779;28;19985;-78
2022/08/29 12:44:00;;;;;;;;;;;23.60;77.70;;;;;;5015794;28;19924;-79
2022/08/29 12:46:39;;;;;;;;;;;23.80;78.90;;;;;;5016749;28;19918;-79
2022/08/29 12:49:08;;;;;;;;;;;23.90;75.60;;;;;;5010845;28;19924;-82
2022/08/29 12:51:38;;;;;;;;;;;24.00;75.20;;;;;;5011423;28;19921;-81
2022/08/29 12:54:04;;;;;;;;;;;24.20;77.10;;;;;;5009329;28;19918;-81
2022/08/29 12:56:30;;;;;;;;;;;24.20;77.00;;;;;;5004801;28;19921;-81
2022/08/29 12:58:58;;;;;;;;;;;24.30;72.90;;;;;;4996414;28;19914;-80
2022/08/29 13:01:23;;;;;;;;;;;24.30;74.00;;;;;;5010354;28;19948;-80
2022/08/29 13:04:08;;;;;;;;;;;24.40;76.10;;;;;;5012700;28;19917;-81
2022/08/29 13:06:34;;;;;;;;;;;24.50;76.70;;;;;;5011202;28;19913;-79
2022/08/29 13:08:59;;;;;;;;;;;24.50;74.90;;;;;;5003986;28;19925;-80
2022/08/29 13:11:27;;;;;;;;;;;24.50;71.80;;;;;;5002196;28;19918;-81
2022/08/29 13:14:03;;;;;;;;;;;24.60;75.80;;;;;;5004716;28;19914;-80
2022/08/29 13:16:29;;;;;;;;;;;24.60;75.00;;;;;;5002958;28;19913;-81
2022/08/29 13:18:54;;;;;;;;;;;24.60;74.90;;;;;;5005869;28;19921;-82
2022/08/29 13:21:25;;;;;;;;;;;24.60;73.50;;;;;;5003752;28;19913;-79
2022/08/29 13:23:57;;;;;;;;;;;24.60;75.40;;;;;;5004915;28;19914;-80
2022/08/29 13:26:26;;;;;;;;;;;24.50;73.90;;;;;;5005150;28;19920;-81
2022/08/29 13:29:10;;;;;;;;;;;24.40;74.40;;;;;;5015176;28;19937;-80
2022/08/29 13:31:37;;;;;;;;;;;24.40;74.60;;;;;;5008118;28;19920;-81
2022/08/29 13:34:05;;;;;;;;;;;24.30;68.90;;;;;;5004835;28;19972;-80
2022/08/29 13:36:31;;;;;;;;;;;24.20;72.20;;;;;;5004221;28;19914;-80
2022/08/29 13:39:16;;;;;;;;;;;24.10;76.30;;;;;;5008705;28;19921;-80
2022/08/29 13:41:49;;;;;;;;;;;24.10;77.80;;;;;;5003826;28;19913;-80
2022/08/29 13:44:22;;;;;;;;;;;24.10;75.00;;;;;;5004863;28;19922;-80
2022/08/29 13:46:50;;;;;;;;;;;24.10;74.30;;;;;;4998822;28;19914;-81
2022/08/29 13:49:19;;;;;;;;;;;24.10;72.30;;;;;;5005507;28;19921;-81
2022/08/29 13:51:45;;;;;;;;;;;24.10;68.90;;;;;;4992348;28;19910;-80
2022/08/29 13:54:11;;;;;;;;;;;24.00;69.30;;;;;;4994992;28;19917;-81
2022/08/29 13:56:36;;;;;;;;;;;23.90;71.30;;;;;;4999042;28;20011;-81
2022/08/29 13:59:02;;;;;;;;;;;23.80;71.20;;;;;;5004273;28;20021;-80
2022/08/29 14:01:28;;;;;;;;;;;23.70;72.00;;;;;;5000854;28;19965;-81
2022/08/29 14:03:55;;;;;;;;;;;23.70;69.50;;;;;;5005877;28;20384;-80
2022/08/29 14:06:22;;;;;;;;;;;23.60;71.70;;;;;;5006551;28;19941;-80
2022/08/29 14:08:48;;;;;;;;;;;23.50;72.20;;;;;;5007930;28;19925;-81
2022/08/29 14:11:14;;;;;;;;;;;23.40;73.90;;;;;;4991258;28;19913;-80
2022/08/29 14:13:39;;;;;;;;;;;23.40;74.70;;;;;;4973359;28;19924;-81
2022/08/29 14:16:06;;;;;;;;;;;23.40;71.90;;;;;;5007956;28;20235;-82
2022/08/29 14:18:31;;;;;;;;;;;23.40;72.60;;;;;;5006453;28;19913;-80
2022/08/29 14:20:57;;;;;;;;;;;23.40;73.20;;;;;;5008128;28;19972;-81
2022/08/29 14:23:23;;;;;;;;;;;23.40;69.90;;;;;;4999914;28;20298;-80
2022/08/29 14:25:49;;;;;;;;;;;23.40;72.70;;;;;;5003812;28;20436;-80